Zakopane, Poland

10:41 AM CEST on August 29, 2014 (GMT +0200)
IPOPRADT1 | Change Station
CLOSE
Current Station
Personal Weather Station
Location: Tatranska Lomnica, Slovakia
Elevation: 2840 ft
Nearby Weather Stations

Elev 2840 ft 49.17 °N, 20.28 °E | Updated 39 minutes ago

Partly Cloudy
Partly Cloudy
51.6 °F
Feels Like 51.6 °F
N
7.2
Wind Variable Wind from SE

Today
High -- | Low -- °F
--% Chance of Precip.
Yesterday
High -- | Low -- °F
Precip. -- in
5:51 AM 7:29 PM
Waxing Crescent, 13% visible
Pressure 30.15 in
Visibility 6.2 miles
Clouds Few 4600 ft
Dew Point 48 °F
Humidity 88%
Rainfall -9999.00 in
Snow Depth Not available.
UV 6 out of 12
Pollen Not available.
Air Quality Not available.
Flu Activity Not available.
METAR LZTT 290830Z VRB02KT 9999 FEW046 17/09 Q1021 NOSIG

More Conditions Fewer Conditions

Pressure 30.15 in
Visibility 6.2 miles
Clouds Few 4600 ft
Dew Point 48 °F
Humidity 88%
Rainfall -9999.00 in
Snow Depth Not available.
UV 6 out of 12
Pollen Not available.
Air Quality Not available.
Flu Activity Not available.
METAR LZTT 290830Z VRB02KT 9999 FEW046 17/09 Q1021 NOSIG

More Conditions Fewer Conditions

10-Day Weather Forecast

Almanac

Astronomy

Aug. 29, 2014 Rise Set
Actual Time 5:51 AM CEST 7:29 PM CEST
Civil Twilight 5:18 AM CEST 8:03 PM CEST
Nautical Twilight 4:37 AM CEST 8:43 PM CEST
Astronomical Twilight 3:51 AM CEST 9:28 PM CEST
Moon 9:46 AM CEST 8:52 PM CEST
Length of Visible Light 14h 45m
Length of Day
13h 38m
Tomorrow will be 3m 30s shorter.
Waxing Crescent, 13% of the Moon is Illuminated
Today
Waxing Crescent
Sep 2
First Quarter
Sep 8
Full
Sep 15
Last Quarter
Sep 24
New

Yesterday's Extremes

Country Highs Country Lows

Community

WunderPhotos

Upload Photos

1,748,197 photos uploaded!

Nearby

Snow Depth

Not available.

Earthquake Activity

City Distance Mag. Time & Date
No recent earthquake activity has been reported nearby.
Minimum magnitude displayed is 2.5.

Coastal Water Temperatures

Place Temperature
No Stations Reporting

Nearby Weather Stations